sensor_id;sensor_type;location;lat;lon;timestamp;temperature;humidity
64961;SHT31;51487;52.266;10.542;2023-11-19T00:00:16;6.36;97.67
64961;SHT31;51487;52.266;10.542;2023-11-19T00:02:42;6.63;97.70
64961;SHT31;51487;52.266;10.542;2023-11-19T00:05:09;6.68;96.97
64961;SHT31;51487;52.266;10.542;2023-11-19T00:07:37;6.61;97.08
64961;SHT31;51487;52.266;10.542;2023-11-19T00:10:03;6.58;97.34
64961;SHT31;51487;52.266;10.542;2023-11-19T00:12:32;6.56;97.52
64961;SHT31;51487;52.266;10.542;2023-11-19T00:14:58;6.60;97.48
64961;SHT31;51487;52.266;10.542;2023-11-19T00:17:23;6.64;97.63
64961;SHT31;51487;52.266;10.542;2023-11-19T00:19:48;6.64;97.28
64961;SHT31;51487;52.266;10.542;2023-11-19T00:22:17;6.76;97.47
64961;SHT31;51487;52.266;10.542;2023-11-19T00:24:42;6.67;96.85
64961;SHT31;51487;52.266;10.542;2023-11-19T00:27:08;6.68;96.75
64961;SHT31;51487;52.266;10.542;2023-11-19T00:29:33;6.80;97.25
64961;SHT31;51487;52.266;10.542;2023-11-19T00:31:59;6.73;96.56
64961;SHT31;51487;52.266;10.542;2023-11-19T00:34:24;6.68;97.02
64961;SHT31;51487;52.266;10.542;2023-11-19T00:36:50;6.77;96.97
64961;SHT31;51487;52.266;10.542;2023-11-19T00:39:15;6.83;96.71
64961;SHT31;51487;52.266;10.542;2023-11-19T00:41:41;6.78;96.64
64961;SHT31;51487;52.266;10.542;2023-11-19T00:44:06;6.85;96.36
64961;SHT31;51487;52.266;10.542;2023-11-19T00:46:32;6.84;96.38
64961;SHT31;51487;52.266;10.542;2023-11-19T00:48:58;6.81;96.50
64961;SHT31;51487;52.266;10.542;2023-11-19T00:51:25;6.91;96.77
64961;SHT31;51487;52.266;10.542;2023-11-19T00:53:52;6.89;95.97
64961;SHT31;51487;52.266;10.542;2023-11-19T00:56:20;6.92;96.27
64961;SHT31;51487;52.266;10.542;2023-11-19T00:58:46;6.88;96.04
64961;SHT31;51487;52.266;10.542;2023-11-19T01:01:12;6.88;96.26
64961;SHT31;51487;52.266;10.542;2023-11-19T01:03:37;6.92;96.29
64961;SHT31;51487;52.266;10.542;2023-11-19T01:06:03;7.02;96.24
64961;SHT31;51487;52.266;10.542;2023-11-19T01:08:30;7.11;96.69
64961;SHT31;51487;52.266;10.542;2023-11-19T01:10:55;7.08;96.41
64961;SHT31;51487;52.266;10.542;2023-11-19T01:13:21;7.12;96.77
64961;SHT31;51487;52.266;10.542;2023-11-19T01:15:46;7.11;96.75
64961;SHT31;51487;52.266;10.542;2023-11-19T01:18:13;7.22;97.21
64961;SHT31;51487;52.266;10.542;2023-11-19T01:20:38;7.08;96.86
64961;SHT31;51487;52.266;10.542;2023-11-19T01:23:04;7.22;97.52
64961;SHT31;51487;52.266;10.542;2023-11-19T01:25:30;7.18;96.84
64961;SHT31;51487;52.266;10.542;2023-11-19T01:27:55;7.16;97.29
64961;SHT31;51487;52.266;10.542;2023-11-19T01:30:24;7.28;96.77
64961;SHT31;51487;52.266;10.542;2023-11-19T01:32:50;7.23;96.61
64961;SHT31;51487;52.266;10.542;2023-11-19T01:35:15;7.22;96.84
64961;SHT31;51487;52.266;10.542;2023-11-19T01:37:41;7.25;97.22
64961;SHT31;51487;52.266;10.542;2023-11-19T01:40:07;7.30;96.84
64961;SHT31;51487;52.266;10.542;2023-11-19T01:42:39;7.35;96.71
64961;SHT31;51487;52.266;10.542;2023-11-19T01:45:05;7.35;96.74
64961;SHT31;51487;52.266;10.542;2023-11-19T01:47:33;7.42;96.98
64961;SHT31;51487;52.266;10.542;2023-11-19T01:49:59;7.39;96.79
64961;SHT31;51487;52.266;10.542;2023-11-19T01:52:26;7.40;96.83
64961;SHT31;51487;52.266;10.542;2023-11-19T01:54:54;7.40;96.74
64961;SHT31;51487;52.266;10.542;2023-11-19T01:57:22;7.42;96.46
64961;SHT31;51487;52.266;10.542;2023-11-19T01:59:51;7.33;97.39
64961;SHT31;51487;52.266;10.542;2023-11-19T02:02:18;7.33;97.63
64961;SHT31;51487;52.266;10.542;2023-11-19T02:04:49;7.45;97.59
64961;SHT31;51487;52.266;10.542;2023-11-19T02:07:15;7.45;97.88
64961;SHT31;51487;52.266;10.542;2023-11-19T02:09:43;7.50;97.95
64961;SHT31;51487;52.266;10.542;2023-11-19T02:12:10;7.49;98.39
64961;SHT31;51487;52.266;10.542;2023-11-19T02:14:38;7.63;98.57
64961;SHT31;51487;52.266;10.542;2023-11-19T02:17:04;7.70;98.54
64961;SHT31;51487;52.266;10.542;2023-11-19T02:19:30;7.87;98.37
64961;SHT31;51487;52.266;10.542;2023-11-19T02:21:56;7.87;98.52
64961;SHT31;51487;52.266;10.542;2023-11-19T02:24:24;8.04;98.65
64961;SHT31;51487;52.266;10.542;2023-11-19T02:27:16;8.07;98.70
64961;SHT31;51487;52.266;10.542;2023-11-19T02:29:44;8.21;98.43
64961;SHT31;51487;52.266;10.542;2023-11-19T02:32:09;8.26;98.51
64961;SHT31;51487;52.266;10.542;2023-11-19T02:34:35;8.36;98.81
64961;SHT31;51487;52.266;10.542;2023-11-19T02:37:00;8.38;98.60
64961;SHT31;51487;52.266;10.542;2023-11-19T02:39:26;8.39;98.59
64961;SHT31;51487;52.266;10.542;2023-11-19T02:41:51;8.52;98.35
64961;SHT31;51487;52.266;10.542;2023-11-19T02:44:18;8.55;98.25
64961;SHT31;51487;52.266;10.542;2023-11-19T02:46:44;8.63;98.29
64961;SHT31;51487;52.266;10.542;2023-11-19T02:49:09;8.56;98.41
64961;SHT31;51487;52.266;10.542;2023-11-19T02:51:35;8.65;98.47
64961;SHT31;51487;52.266;10.542;2023-11-19T02:54:01;8.65;98.37
64961;SHT31;51487;52.266;10.542;2023-11-19T02:56:29;8.72;98.89
64961;SHT31;51487;52.266;10.542;2023-11-19T02:59:00;8.73;98.83
64961;SHT31;51487;52.266;10.542;2023-11-19T03:01:32;8.75;99.12
64961;SHT31;51487;52.266;10.542;2023-11-19T03:04:00;8.77;99.40
64961;SHT31;51487;52.266;10.542;2023-11-19T03:06:27;8.73;99.52
64961;SHT31;51487;52.266;10.542;2023-11-19T03:08:55;8.70;99.74
64961;SHT31;51487;52.266;10.542;2023-11-19T03:11:20;8.72;99.84
64961;SHT31;51487;52.266;10.542;2023-11-19T03:13:46;8.75;99.83
64961;SHT31;51487;52.266;10.542;2023-11-19T03:16:13;8.80;99.62
64961;SHT31;51487;52.266;10.542;2023-11-19T03:18:39;8.86;99.60
64961;SHT31;51487;52.266;10.542;2023-11-19T03:21:08;8.90;99.34
64961;SHT31;51487;52.266;10.542;2023-11-19T03:23:34;8.91;99.41
64961;SHT31;51487;52.266;10.542;2023-11-19T03:26:00;8.90;99.25
64961;SHT31;51487;52.266;10.542;2023-11-19T03:28:29;8.80;99.51
64961;SHT31;51487;52.266;10.542;2023-11-19T03:30:54;8.86;99.52
64961;SHT31;51487;52.266;10.542;2023-11-19T03:33:20;8.88;99.38
64961;SHT31;51487;52.266;10.542;2023-11-19T03:35:46;8.88;99.49
64961;SHT31;51487;52.266;10.542;2023-11-19T03:38:11;8.94;99.59
64961;SHT31;51487;52.266;10.542;2023-11-19T03:40:37;8.99;99.31
64961;SHT31;51487;52.266;10.542;2023-11-19T03:43:03;9.06;99.20
64961;SHT31;51487;52.266;10.542;2023-11-19T03:45:29;9.08;98.99
64961;SHT31;51487;52.266;10.542;2023-11-19T03:47:55;9.14;98.87
64961;SHT31;51487;52.266;10.542;2023-11-19T03:50:20;9.13;99.31
64961;SHT31;51487;52.266;10.542;2023-11-19T03:52:47;9.10;99.47
64961;SHT31;51487;52.266;10.542;2023-11-19T03:55:13;9.21;99.13
64961;SHT31;51487;52.266;10.542;2023-11-19T03:57:39;9.27;99.19
64961;SHT31;51487;52.266;10.542;2023-11-19T04:00:05;9.27;99.22
64961;SHT31;51487;52.266;10.542;2023-11-19T04:02:37;9.21;99.46
64961;SHT31;51487;52.266;10.542;2023-11-19T04:05:03;9.27;99.33
64961;SHT31;51487;52.266;10.542;2023-11-19T04:07:30;9.30;99.40
64961;SHT31;51487;52.266;10.542;2023-11-19T04:09:57;9.27;99.41
64961;SHT31;51487;52.266;10.542;2023-11-19T04:12:22;9.24;99.47
64961;SHT31;51487;52.266;10.542;2023-11-19T04:14:48;9.27;99.32
64961;SHT31;51487;52.266;10.542;2023-11-19T04:17:13;9.32;99.18
64961;SHT31;51487;52.266;10.542;2023-11-19T04:19:39;9.44;98.94
64961;SHT31;51487;52.266;10.542;2023-11-19T04:22:07;9.39;98.77
64961;SHT31;51487;52.266;10.542;2023-11-19T04:24:35;9.39;98.94
64961;SHT31;51487;52.266;10.542;2023-11-19T04:27:00;9.45;98.97
64961;SHT31;51487;52.266;10.542;2023-11-19T04:29:26;9.44;98.76
64961;SHT31;51487;52.266;10.542;2023-11-19T04:31:51;9.41;98.93
64961;SHT31;51487;52.266;10.542;2023-11-19T04:34:17;9.52;98.75
64961;SHT31;51487;52.266;10.542;2023-11-19T04:36:42;9.51;98.81
64961;SHT31;51487;52.266;10.542;2023-11-19T04:39:09;9.52;98.85
64961;SHT31;51487;52.266;10.542;2023-11-19T04:41:35;9.61;98.84
64961;SHT31;51487;52.266;10.542;2023-11-19T04:44:02;9.58;98.83
64961;SHT31;51487;52.266;10.542;2023-11-19T04:46:27;9.66;98.73
64961;SHT31;51487;52.266;10.542;2023-11-19T04:48:53;9.68;98.66
64961;SHT31;51487;52.266;10.542;2023-11-19T04:51:18;9.68;98.61
64961;SHT31;51487;52.266;10.542;2023-11-19T04:53:44;9.76;98.50
64961;SHT31;51487;52.266;10.542;2023-11-19T04:56:12;9.72;98.76
64961;SHT31;51487;52.266;10.542;2023-11-19T04:58:39;9.71;98.86
64961;SHT31;51487;52.266;10.542;2023-11-19T05:01:04;9.78;98.84
64961;SHT31;51487;52.266;10.542;2023-11-19T05:03:31;9.75;99.00
64961;SHT31;51487;52.266;10.542;2023-11-19T05:05:59;9.72;99.01
64961;SHT31;51487;52.266;10.542;2023-11-19T05:08:25;9.79;98.81
64961;SHT31;51487;52.266;10.542;2023-11-19T05:10:51;9.79;98.82
64961;SHT31;51487;52.266;10.542;2023-11-19T05:13:16;9.79;98.93
64961;SHT31;51487;52.266;10.542;2023-11-19T05:15:42;9.87;98.83
64961;SHT31;51487;52.266;10.542;2023-11-19T05:18:08;9.89;98.51
64961;SHT31;51487;52.266;10.542;2023-11-19T05:20:34;9.87;98.47
64961;SHT31;51487;52.266;10.542;2023-11-19T05:22:59;9.83;98.54
64961;SHT31;51487;52.266;10.542;2023-11-19T05:25:26;9.87;98.60
64961;SHT31;51487;52.266;10.542;2023-11-19T05:27:53;9.87;98.66
64961;SHT31;51487;52.266;10.542;2023-11-19T05:30:18;9.85;98.76
64961;SHT31;51487;52.266;10.542;2023-11-19T05:32:44;9.86;98.75
64961;SHT31;51487;52.266;10.542;2023-11-19T05:35:11;9.96;98.42
64961;SHT31;51487;52.266;10.542;2023-11-19T05:37:37;9.97;98.44
64961;SHT31;51487;52.266;10.542;2023-11-19T05:40:03;9.93;98.44
64961;SHT31;51487;52.266;10.542;2023-11-19T05:42:31;9.87;98.71
64961;SHT31;51487;52.266;10.542;2023-11-19T05:44:56;10.00;98.38
64961;SHT31;51487;52.266;10.542;2023-11-19T05:47:23;10.00;98.11
64961;SHT31;51487;52.266;10.542;2023-11-19T05:49:48;9.97;98.27
64961;SHT31;51487;52.266;10.542;2023-11-19T05:52:14;9.92;98.36
64961;SHT31;51487;52.266;10.542;2023-11-19T05:54:39;9.78;98.72
64961;SHT31;51487;52.266;10.542;2023-11-19T05:57:06;9.83;98.52
64961;SHT31;51487;52.266;10.542;2023-11-19T05:59:35;9.69;98.68
64961;SHT31;51487;52.266;10.542;2023-11-19T06:02:02;9.66;99.23
64961;SHT31;51487;52.266;10.542;2023-11-19T06:04:28;9.61;99.39
64961;SHT31;51487;52.266;10.542;2023-11-19T06:06:53;9.51;99.81
64961;SHT31;51487;52.266;10.542;2023-11-19T06:09:21;9.56;99.82
64961;SHT31;51487;52.266;10.542;2023-11-19T06:11:49;9.58;99.80
64961;SHT31;51487;52.266;10.542;2023-11-19T06:14:16;9.72;99.62
64961;SHT31;51487;52.266;10.542;2023-11-19T06:16:41;9.71;99.63
64961;SHT31;51487;52.266;10.542;2023-11-19T06:19:07;9.78;99.50
64961;SHT31;51487;52.266;10.542;2023-11-19T06:21:33;9.78;99.45
64961;SHT31;51487;52.266;10.542;2023-11-19T06:23:58;9.92;99.18
64961;SHT31;51487;52.266;10.542;2023-11-19T06:26:24;9.93;98.92
64961;SHT31;51487;52.266;10.542;2023-11-19T06:28:50;9.85;99.27
64961;SHT31;51487;52.266;10.542;2023-11-19T06:31:15;9.87;99.44
64961;SHT31;51487;52.266;10.542;2023-11-19T06:33:42;9.97;99.42
64961;SHT31;51487;52.266;10.542;2023-11-19T06:36:08;9.94;99.40
64961;SHT31;51487;52.266;10.542;2023-11-19T06:38:35;9.93;99.58
64961;SHT31;51487;52.266;10.542;2023-11-19T06:41:00;9.93;99.71
64961;SHT31;51487;52.266;10.542;2023-11-19T06:43:26;9.96;99.82
64961;SHT31;51487;52.266;10.542;2023-11-19T06:45:54;10.00;99.56
64961;SHT31;51487;52.266;10.542;2023-11-19T06:48:19;9.96;99.62
64961;SHT31;51487;52.266;10.542;2023-11-19T06:50:45;9.96;99.64
64961;SHT31;51487;52.266;10.542;2023-11-19T06:53:10;9.92;99.83
64961;SHT31;51487;52.266;10.542;2023-11-19T06:55:36;9.99;99.83
64961;SHT31;51487;52.266;10.542;2023-11-19T06:58:01;10.07;99.71
64961;SHT31;51487;52.266;10.542;2023-11-19T07:00:29;10.17;99.20
64961;SHT31;51487;52.266;10.542;2023-11-19T07:02:55;10.18;99.27
64961;SHT31;51487;52.266;10.542;2023-11-19T07:05:20;10.25;99.15
64961;SHT31;51487;52.266;10.542;2023-11-19T07:07:46;10.30;99.22
64961;SHT31;51487;52.266;10.542;2023-11-19T07:10:12;10.36;99.38
64961;SHT31;51487;52.266;10.542;2023-11-19T07:12:38;10.41;99.22
64961;SHT31;51487;52.266;10.542;2023-11-19T07:15:04;10.40;99.15
64961;SHT31;51487;52.266;10.542;2023-11-19T07:17:34;10.48;99.12
64961;SHT31;51487;52.266;10.542;2023-11-19T07:20:00;10.53;98.54
64961;SHT31;51487;52.266;10.542;2023-11-19T07:22:26;10.50;98.65
64961;SHT31;51487;52.266;10.542;2023-11-19T07:24:52;10.58;98.36
64961;SHT31;51487;52.266;10.542;2023-11-19T07:27:19;10.54;98.53
64961;SHT31;51487;52.266;10.542;2023-11-19T07:29:44;10.47;98.94
64961;SHT31;51487;52.266;10.542;2023-11-19T07:32:11;10.65;98.23
64961;SHT31;51487;52.266;10.542;2023-11-19T07:34:36;10.67;97.91
64961;SHT31;51487;52.266;10.542;2023-11-19T07:37:02;10.74;97.84
64961;SHT31;51487;52.266;10.542;2023-11-19T07:39:29;10.81;97.78
64961;SHT31;51487;52.266;10.542;2023-11-19T07:41:55;10.76;97.93
64961;SHT31;51487;52.266;10.542;2023-11-19T07:44:20;10.67;98.07
64961;SHT31;51487;52.266;10.542;2023-11-19T07:46:47;10.75;98.02
64961;SHT31;51487;52.266;10.542;2023-11-19T07:49:13;10.83;97.75
64961;SHT31;51487;52.266;10.542;2023-11-19T07:51:39;10.91;97.37
64961;SHT31;51487;52.266;10.542;2023-11-19T07:54:05;10.89;97.23
64961;SHT31;51487;52.266;10.542;2023-11-19T07:56:34;10.83;97.59
64961;SHT31;51487;52.266;10.542;2023-11-19T07:59:02;10.78;97.53
64961;SHT31;51487;52.266;10.542;2023-11-19T08:01:27;10.74;97.81
64961;SHT31;51487;52.266;10.542;2023-11-19T08:03:53;10.92;97.39
64961;SHT31;51487;52.266;10.542;2023-11-19T08:06:18;10.95;97.36
64961;SHT31;51487;52.266;10.542;2023-11-19T08:08:44;11.02;96.98
64961;SHT31;51487;52.266;10.542;2023-11-19T08:11:10;10.98;96.99
64961;SHT31;51487;52.266;10.542;2023-11-19T08:13:35;11.12;96.64
64961;SHT31;51487;52.266;10.542;2023-11-19T08:16:01;11.01;97.03
64961;SHT31;51487;52.266;10.542;2023-11-19T08:18:27;11.11;96.55
64961;SHT31;51487;52.266;10.542;2023-11-19T08:20:53;11.19;96.07
64961;SHT31;51487;52.266;10.542;2023-11-19T08:23:19;11.37;95.62
64961;SHT31;51487;52.266;10.542;2023-11-19T08:25:46;11.39;95.13
64961;SHT31;51487;52.266;10.542;2023-11-19T08:28:11;11.51;94.73
64961;SHT31;51487;52.266;10.542;2023-11-19T08:30:37;11.61;94.08
64961;SHT31;51487;52.266;10.542;2023-11-19T08:33:03;11.75;93.39
64961;SHT31;51487;52.266;10.542;2023-11-19T08:35:29;11.78;92.81
64961;SHT31;51487;52.266;10.542;2023-11-19T08:37:55;11.92;92.11
64961;SHT31;51487;52.266;10.542;2023-11-19T08:40:21;11.99;92.01
64961;SHT31;51487;52.266;10.542;2023-11-19T08:42:46;11.99;91.36
64961;SHT31;51487;52.266;10.542;2023-11-19T08:45:12;12.15;90.53
64961;SHT31;51487;52.266;10.542;2023-11-19T08:47:37;12.25;90.44
64961;SHT31;51487;52.266;10.542;2023-11-19T08:50:04;12.30;89.99
64961;SHT31;51487;52.266;10.542;2023-11-19T08:52:30;12.29;89.90
64961;SHT31;51487;52.266;10.542;2023-11-19T08:54:56;12.33;89.65
64961;SHT31;51487;52.266;10.542;2023-11-19T08:57:21;12.39;89.50
64961;SHT31;51487;52.266;10.542;2023-11-19T08:59:46;12.43;89.03
64961;SHT31;51487;52.266;10.542;2023-11-19T09:02:12;12.45;89.31
64961;SHT31;51487;52.266;10.542;2023-11-19T09:04:38;12.43;89.05
64961;SHT31;51487;52.266;10.542;2023-11-19T09:07:03;12.46;88.52
64961;SHT31;51487;52.266;10.542;2023-11-19T09:09:29;12.46;88.62
64961;SHT31;51487;52.266;10.542;2023-11-19T09:11:55;12.57;87.78
64961;SHT31;51487;52.266;10.542;2023-11-19T09:14:21;12.52;88.40
64961;SHT31;51487;52.266;10.542;2023-11-19T09:16:51;12.61;87.66
64961;SHT31;51487;52.266;10.542;2023-11-19T09:19:17;12.57;88.10
64961;SHT31;51487;52.266;10.542;2023-11-19T09:21:43;12.49;88.63
64961;SHT31;51487;52.266;10.542;2023-11-19T09:24:09;12.61;87.61
64961;SHT31;51487;52.266;10.542;2023-11-19T09:26:34;12.53;88.20
64961;SHT31;51487;52.266;10.542;2023-11-19T09:29:02;12.49;87.99
64961;SHT31;51487;52.266;10.542;2023-11-19T09:31:27;12.42;88.12
64961;SHT31;51487;52.266;10.542;2023-11-19T09:33:53;12.49;87.51
64961;SHT31;51487;52.266;10.542;2023-11-19T09:36:19;12.43;88.13
64961;SHT31;51487;52.266;10.542;2023-11-19T09:38:45;12.40;87.59
64961;SHT31;51487;52.266;10.542;2023-11-19T09:41:11;12.39;87.90
64961;SHT31;51487;52.266;10.542;2023-11-19T09:43:42;12.40;87.97
64961;SHT31;51487;52.266;10.542;2023-11-19T09:46:14;12.42;87.64
64961;SHT31;51487;52.266;10.542;2023-11-19T09:48:41;12.42;87.38
64961;SHT31;51487;52.266;10.542;2023-11-19T09:51:09;12.56;87.44
64961;SHT31;51487;52.266;10.542;2023-11-19T09:53:36;12.48;87.05
64961;SHT31;51487;52.266;10.542;2023-11-19T09:56:05;12.59;86.81
64961;SHT31;51487;52.266;10.542;2023-11-19T09:58:32;12.61;86.45
64961;SHT31;51487;52.266;10.542;2023-11-19T10:00:59;12.63;86.53
64961;SHT31;51487;52.266;10.542;2023-11-19T10:03:33;12.75;86.48
64961;SHT31;51487;52.266;10.542;2023-11-19T10:06:01;12.80;86.83
64961;SHT31;51487;52.266;10.542;2023-11-19T10:08:27;12.84;86.56
64961;SHT31;51487;52.266;10.542;2023-11-19T10:10:53;12.81;86.14
64961;SHT31;51487;52.266;10.542;2023-11-19T10:13:19;12.83;86.32
64961;SHT31;51487;52.266;10.542;2023-11-19T10:15:45;13.04;85.56
64961;SHT31;51487;52.266;10.542;2023-11-19T10:18:14;13.08;85.70
64961;SHT31;51487;52.266;10.542;2023-11-19T10:20:41;13.07;85.45
64961;SHT31;51487;52.266;10.542;2023-11-19T10:23:07;13.04;85.63
64961;SHT31;51487;52.266;10.542;2023-11-19T10:25:34;12.97;85.51
64961;SHT31;51487;52.266;10.542;2023-11-19T10:28:00;12.94;85.51
64961;SHT31;51487;52.266;10.542;2023-11-19T10:30:28;12.84;85.62
64961;SHT31;51487;52.266;10.542;2023-11-19T10:33:13;13.06;85.42
64961;SHT31;51487;52.266;10.542;2023-11-19T10:35:57;13.10;85.38
64961;SHT31;51487;52.266;10.542;2023-11-19T10:38:24;13.15;85.31
64961;SHT31;51487;52.266;10.542;2023-11-19T10:40:51;13.22;84.95
64961;SHT31;51487;52.266;10.542;2023-11-19T10:43:18;13.24;85.01
64961;SHT31;51487;52.266;10.542;2023-11-19T10:45:44;13.08;85.80
64961;SHT31;51487;52.266;10.542;2023-11-19T10:48:10;13.08;85.03
64961;SHT31;51487;52.266;10.542;2023-11-19T10:50:39;13.21;84.50
64961;SHT31;51487;52.266;10.542;2023-11-19T10:53:08;13.19;84.63
64961;SHT31;51487;52.266;10.542;2023-11-19T10:55:37;13.41;84.13
64961;SHT31;51487;52.266;10.542;2023-11-19T10:58:08;13.35;83.73
64961;SHT31;51487;52.266;10.542;2023-11-19T11:00:57;13.52;83.20
64961;SHT31;51487;52.266;10.542;2023-11-19T11:03:25;13.69;82.68
64961;SHT31;51487;52.266;10.542;2023-11-19T11:05:53;13.90;82.56
64961;SHT31;51487;52.266;10.542;2023-11-19T11:08:20;13.79;82.63
64961;SHT31;51487;52.266;10.542;2023-11-19T11:10:55;13.65;82.51
64961;SHT31;51487;52.266;10.542;2023-11-19T11:13:24;13.51;82.81
64961;SHT31;51487;52.266;10.542;2023-11-19T11:15:51;13.39;82.47
64961;SHT31;51487;52.266;10.542;2023-11-19T11:18:17;13.35;82.84
64961;SHT31;51487;52.266;10.542;2023-11-19T11:20:45;13.31;83.05
64961;SHT31;51487;52.266;10.542;2023-11-19T11:26:46;13.07;83.41
64961;SHT31;51487;52.266;10.542;2023-11-19T11:29:46;12.93;84.20
64961;SHT31;51487;52.266;10.542;2023-11-19T11:37:55;12.84;85.02
64961;SHT31;51487;52.266;10.542;2023-11-19T11:40:24;12.80;85.46
64961;SHT31;51487;52.266;10.542;2023-11-19T11:42:52;12.81;85.36
64961;SHT31;51487;52.266;10.542;2023-11-19T11:45:18;12.81;85.77
64961;SHT31;51487;52.266;10.542;2023-11-19T11:50:20;12.83;85.59
64961;SHT31;51487;52.266;10.542;2023-11-19T11:58:26;12.87;85.77
64961;SHT31;51487;52.266;10.542;2023-11-19T12:00:52;12.87;85.82
64961;SHT31;51487;52.266;10.542;2023-11-19T12:03:21;12.91;85.67
64961;SHT31;51487;52.266;10.542;2023-11-19T12:05:48;12.90;85.61
64961;SHT31;51487;52.266;10.542;2023-11-19T12:08:18;12.88;85.70
64961;SHT31;51487;52.266;10.542;2023-11-19T12:10:51;12.94;85.01
64961;SHT31;51487;52.266;10.542;2023-11-19T12:13:20;13.03;84.55
64961;SHT31;51487;52.266;10.542;2023-11-19T12:18:32;12.98;84.53
64961;SHT31;51487;52.266;10.542;2023-11-19T12:20:59;13.01;84.21
64961;SHT31;51487;52.266;10.542;2023-11-19T12:23:31;13.04;84.43
64961;SHT31;51487;52.266;10.542;2023-11-19T12:25:58;13.03;84.40
64961;SHT31;51487;52.266;10.542;2023-11-19T12:28:24;13.07;84.38
64961;SHT31;51487;52.266;10.542;2023-11-19T12:30:52;13.07;84.10
64961;SHT31;51487;52.266;10.542;2023-11-19T12:33:21;13.17;84.15
64961;SHT31;51487;52.266;10.542;2023-11-19T12:35:48;13.15;84.14
64961;SHT31;51487;52.266;10.542;2023-11-19T12:38:22;13.24;83.67
64961;SHT31;51487;52.266;10.542;2023-11-19T12:41:05;13.34;83.27
64961;SHT31;51487;52.266;10.542;2023-11-19T12:43:30;13.41;82.91
64961;SHT31;51487;52.266;10.542;2023-11-19T12:45:57;13.45;82.61
64961;SHT31;51487;52.266;10.542;2023-11-19T12:48:23;13.38;82.73
64961;SHT31;51487;52.266;10.542;2023-11-19T12:50:53;13.39;82.62
64961;SHT31;51487;52.266;10.542;2023-11-19T12:53:20;13.29;82.98
64961;SHT31;51487;52.266;10.542;2023-11-19T12:55:45;13.31;83.05
64961;SHT31;51487;52.266;10.542;2023-11-19T12:58:36;13.19;83.06
64961;SHT31;51487;52.266;10.542;2023-11-19T13:01:09;13.17;83.02
64961;SHT31;51487;52.266;10.542;2023-11-19T13:03:38;13.22;82.97
64961;SHT31;51487;52.266;10.542;2023-11-19T13:06:14;13.14;83.04
64961;SHT31;51487;52.266;10.542;2023-11-19T13:08:49;13.21;83.03
64961;SHT31;51487;52.266;10.542;2023-11-19T13:11:31;13.18;83.61
64961;SHT31;51487;52.266;10.542;2023-11-19T13:14:06;13.03;83.20
64961;SHT31;51487;52.266;10.542;2023-11-19T13:16:37;13.11;83.28
64961;SHT31;51487;52.266;10.542;2023-11-19T13:19:04;13.06;83.47
64961;SHT31;51487;52.266;10.542;2023-11-19T13:21:30;13.04;83.39
64961;SHT31;51487;52.266;10.542;2023-11-19T13:23:56;13.04;83.11
64961;SHT31;51487;52.266;10.542;2023-11-19T13:26:22;13.08;83.35
64961;SHT31;51487;52.266;10.542;2023-11-19T13:28:48;13.04;82.97
64961;SHT31;51487;52.266;10.542;2023-11-19T13:31:14;13.07;82.83
64961;SHT31;51487;52.266;10.542;2023-11-19T13:33:41;13.07;83.13
64961;SHT31;51487;52.266;10.542;2023-11-19T13:36:07;13.00;83.34
64961;SHT31;51487;52.266;10.542;2023-11-19T13:38:33;13.11;82.77
64961;SHT31;51487;52.266;10.542;2023-11-19T13:41:02;13.07;82.74
64961;SHT31;51487;52.266;10.542;2023-11-19T13:43:28;13.14;82.70
64961;SHT31;51487;52.266;10.542;2023-11-19T13:45:55;13.11;82.66
64961;SHT31;51487;52.266;10.542;2023-11-19T13:48:21;13.10;82.65
64961;SHT31;51487;52.266;10.542;2023-11-19T13:50:47;13.00;82.95
64961;SHT31;51487;52.266;10.542;2023-11-19T13:53:12;12.94;82.97
64961;SHT31;51487;52.266;10.542;2023-11-19T13:55:38;12.83;83.60
64961;SHT31;51487;52.266;10.542;2023-11-19T13:58:03;12.80;83.76
64961;SHT31;51487;52.266;10.542;2023-11-19T14:00:29;12.77;83.97
64961;SHT31;51487;52.266;10.542;2023-11-19T14:02:54;12.80;84.11
64961;SHT31;51487;52.266;10.542;2023-11-19T14:05:20;12.70;84.80
64961;SHT31;51487;52.266;10.542;2023-11-19T14:07:45;12.69;84.71
64961;SHT31;51487;52.266;10.542;2023-11-19T14:10:14;12.75;84.80
64961;SHT31;51487;52.266;10.542;2023-11-19T14:12:41;12.72;85.06
64961;SHT31;51487;52.266;10.542;2023-11-19T14:15:09;12.69;85.28
64961;SHT31;51487;52.266;10.542;2023-11-19T14:17:36;12.69;85.02
64961;SHT31;51487;52.266;10.542;2023-11-19T14:20:02;12.72;85.30
64961;SHT31;51487;52.266;10.542;2023-11-19T14:22:41;12.70;85.26
64961;SHT31;51487;52.266;10.542;2023-11-19T14:25:11;12.67;85.37
64961;SHT31;51487;52.266;10.542;2023-11-19T14:27:38;12.57;85.81
64961;SHT31;51487;52.266;10.542;2023-11-19T14:30:09;12.64;85.46
64961;SHT31;51487;52.266;10.542;2023-11-19T14:32:36;12.64;85.83
64961;SHT31;51487;52.266;10.542;2023-11-19T14:35:03;12.55;86.25
64961;SHT31;51487;52.266;10.542;2023-11-19T14:37:29;12.56;86.03
64961;SHT31;51487;52.266;10.542;2023-11-19T14:39:58;12.61;86.00
64961;SHT31;51487;52.266;10.542;2023-11-19T14:42:24;12.57;86.41
64961;SHT31;51487;52.266;10.542;2023-11-19T14:44:53;12.53;86.42
64961;SHT31;51487;52.266;10.542;2023-11-19T14:47:22;12.56;86.63
64961;SHT31;51487;52.266;10.542;2023-11-19T14:49:48;12.55;86.68
64961;SHT31;51487;52.266;10.542;2023-11-19T14:52:14;12.42;87.25
64961;SHT31;51487;52.266;10.542;2023-11-19T14:54:39;12.32;87.57
64961;SHT31;51487;52.266;10.542;2023-11-19T14:57:06;12.26;87.78
64961;SHT31;51487;52.266;10.542;2023-11-19T14:59:34;12.24;87.97
64961;SHT31;51487;52.266;10.542;2023-11-19T15:02:00;12.19;88.00
64961;SHT31;51487;52.266;10.542;2023-11-19T15:04:26;12.17;88.20
64961;SHT31;51487;52.266;10.542;2023-11-19T15:06:52;12.18;88.16
64961;SHT31;51487;52.266;10.542;2023-11-19T15:09:18;12.21;88.17
64961;SHT31;51487;52.266;10.542;2023-11-19T15:11:46;12.19;88.15
64961;SHT31;51487;52.266;10.542;2023-11-19T15:14:13;12.21;87.66
64961;SHT31;51487;52.266;10.542;2023-11-19T15:16:45;12.08;87.58
64961;SHT31;51487;52.266;10.542;2023-11-19T15:19:12;12.06;87.64
64961;SHT31;51487;52.266;10.542;2023-11-19T15:21:41;12.02;87.74
64961;SHT31;51487;52.266;10.542;2023-11-19T15:24:08;11.99;88.05
64961;SHT31;51487;52.266;10.542;2023-11-19T15:26:34;12.09;87.24
64961;SHT31;51487;52.266;10.542;2023-11-19T15:29:03;12.04;87.34
64961;SHT31;51487;52.266;10.542;2023-11-19T15:31:29;12.11;87.56
64961;SHT31;51487;52.266;10.542;2023-11-19T15:33:56;12.12;87.36
64961;SHT31;51487;52.266;10.542;2023-11-19T15:36:22;12.12;87.20
64961;SHT31;51487;52.266;10.542;2023-11-19T15:38:47;12.12;87.36
64961;SHT31;51487;52.266;10.542;2023-11-19T15:41:13;12.11;87.58